createdAt,value
2018-07-05T00:01:57.219Z,2.83
2018-07-05T00:04:36.759Z,2.80
2018-07-05T00:07:16.125Z,3.37
2018-07-05T00:09:55.584Z,3.13
2018-07-05T00:12:34.964Z,3.37
2018-07-05T00:15:14.259Z,2.60
2018-07-05T00:17:53.787Z,2.80
2018-07-05T00:20:33.220Z,2.60
2018-07-05T00:23:12.585Z,3.23
2018-07-05T00:25:52.068Z,3.30
2018-07-05T00:28:31.369Z,2.90
2018-07-05T00:31:10.810Z,2.90
2018-07-05T00:33:50.142Z,3.00
2018-07-05T00:36:29.597Z,3.23
2018-07-05T00:39:24.931Z,2.63
2018-07-05T00:42:04.235Z,2.83
2018-07-05T00:44:43.564Z,3.13
2018-07-05T00:47:23.044Z,3.27
2018-07-05T00:50:02.403Z,2.53
2018-07-05T00:52:41.887Z,3.60
2018-07-05T00:55:21.251Z,2.77
2018-07-05T00:58:00.691Z,2.70
2018-07-05T01:00:40.044Z,3.00
2018-07-05T01:03:19.774Z,3.30
2018-07-05T01:05:59.196Z,3.20
2018-07-05T01:08:38.759Z,3.00
2018-07-05T01:11:18.215Z,3.00
2018-07-05T01:13:57.653Z,3.00
2018-07-05T01:16:37.015Z,2.63
2018-07-05T01:19:16.450Z,3.30
2018-07-05T01:21:55.988Z,2.87
2018-07-05T01:24:35.408Z,3.60
2018-07-05T01:27:14.787Z,3.40
2018-07-05T01:29:54.268Z,3.10
2018-07-05T01:32:33.639Z,3.27
2018-07-05T01:35:12.920Z,3.13
2018-07-05T01:37:52.229Z,2.70
2018-07-05T01:40:31.859Z,3.27
2018-07-05T01:43:11.271Z,2.40
2018-07-05T01:45:50.622Z,3.30
2018-07-05T01:48:30.220Z,2.70
2018-07-05T01:51:09.451Z,2.83
2018-07-05T01:53:48.795Z,3.07
2018-07-05T01:56:28.319Z,3.57
2018-07-05T01:59:07.710Z,3.27
2018-07-05T02:01:47.184Z,3.10
2018-07-05T02:04:26.621Z,3.20
2018-07-05T02:07:05.901Z,3.43
2018-07-05T02:09:45.524Z,3.40
2018-07-05T02:12:24.963Z,2.97
2018-07-05T02:15:04.353Z,3.50
2018-07-05T02:17:43.958Z,3.40
2018-07-05T02:20:23.486Z,2.97
2018-07-05T02:23:02.946Z,3.80
2018-07-05T02:25:42.180Z,3.17
2018-07-05T02:28:21.608Z,4.23
2018-07-05T02:31:00.943Z,3.40
2018-07-05T02:33:40.470Z,3.57
2018-07-05T02:36:19.740Z,3.70
2018-07-05T02:39:04.630Z,3.50
2018-07-05T02:41:44.094Z,4.07
2018-07-05T02:44:23.369Z,4.43
2018-07-05T02:47:02.831Z,4.00
2018-07-05T02:49:42.252Z,3.60
2018-07-05T02:52:21.853Z,4.00
2018-07-05T02:55:01.292Z,4.43
2018-07-05T02:57:40.696Z,3.97
2018-07-05T03:00:19.987Z,3.67
2018-07-05T03:02:59.498Z,4.40
2018-07-05T03:05:38.989Z,4.10
2018-07-05T03:08:18.219Z,3.67
2018-07-05T03:10:57.641Z,3.93
2018-07-05T03:13:37.167Z,3.30
2018-07-05T03:16:16.520Z,3.33
2018-07-05T03:18:55.981Z,3.30
2018-07-05T03:21:35.221Z,3.87
2018-07-05T03:24:14.612Z,4.37
2018-07-05T03:26:53.868Z,3.10
2018-07-05T03:29:33.351Z,3.03
2018-07-05T03:32:12.697Z,3.60
2018-07-05T03:34:52.276Z,3.70
2018-07-05T03:37:31.597Z,3.80
2018-07-05T03:40:10.979Z,4.17
2018-07-05T03:42:50.303Z,4.20
2018-07-05T03:45:29.740Z,3.90
2018-07-05T03:48:09.232Z,4.33
2018-07-05T03:50:48.607Z,3.90
2018-07-05T03:53:28.022Z,3.97
2018-07-05T03:56:07.411Z,5.17
2018-07-05T03:58:46.714Z,4.33
2018-07-05T04:01:25.990Z,3.40
2018-07-05T04:04:05.439Z,3.70
2018-07-05T04:06:44.789Z,4.80
2018-07-05T04:09:24.287Z,3.63
2018-07-05T04:12:03.584Z,3.93
2018-07-05T04:14:43.100Z,5.07
2018-07-05T04:17:22.529Z,3.80
2018-07-05T04:20:01.828Z,4.00
2018-07-05T04:22:41.225Z,3.77
2018-07-05T04:25:20.488Z,3.80
2018-07-05T04:27:59.896Z,3.30
2018-07-05T04:30:39.247Z,4.10
2018-07-05T04:33:18.791Z,3.83
2018-07-05T04:35:58.174Z,4.03
2018-07-05T04:38:37.500Z,4.17
2018-07-05T04:41:16.947Z,4.30
2018-07-05T04:43:56.449Z,3.27
2018-07-05T04:46:35.754Z,4.10
2018-07-05T04:49:15.134Z,4.97
2018-07-05T04:51:54.431Z,4.73
2018-07-05T04:54:33.879Z,4.90
2018-07-05T04:57:13.480Z,4.33
2018-07-05T04:59:52.905Z,4.77
2018-07-05T05:02:32.140Z,4.97
2018-07-05T05:05:11.543Z,4.70
2018-07-05T05:07:53.780Z,5.70
2018-07-05T05:10:33.258Z,5.20
2018-07-05T05:13:12.871Z,5.70
2018-07-05T05:15:52.235Z,6.70
2018-07-05T05:18:31.727Z,5.77
2018-07-05T05:21:10.977Z,5.97
2018-07-05T05:23:50.534Z,5.40
2018-07-05T05:26:30.035Z,6.00
2018-07-05T05:29:09.515Z,5.30
2018-07-05T05:31:49.300Z,5.40
2018-07-05T05:34:28.733Z,5.50
2018-07-05T05:37:08.163Z,5.70
2018-07-05T05:39:47.572Z,4.80
2018-07-05T05:42:26.831Z,4.47
2018-07-05T05:45:06.245Z,4.83
2018-07-05T05:47:46.180Z,4.63
2018-07-05T05:50:25.636Z,4.80
2018-07-05T05:53:04.936Z,4.73
2018-07-05T05:55:44.424Z,4.80
2018-07-05T05:58:23.858Z,4.73
2018-07-05T06:01:03.123Z,4.90
2018-07-05T06:03:42.507Z,4.70
2018-07-05T06:06:21.873Z,5.37
2018-07-05T06:09:01.382Z,4.60
2018-07-05T06:11:40.772Z,5.10
2018-07-05T06:14:20.127Z,5.10
2018-07-05T06:16:59.545Z,4.90
2018-07-05T06:19:38.970Z,4.80
2018-07-05T06:22:18.447Z,5.30
2018-07-05T06:24:57.788Z,4.70
2018-07-05T06:27:37.208Z,5.00
2018-07-05T06:30:16.571Z,4.83
2018-07-05T06:32:56.048Z,4.80
2018-07-05T06:35:35.437Z,5.23
2018-07-05T06:38:14.836Z,5.00
2018-07-05T06:40:54.443Z,4.37
2018-07-05T06:43:33.816Z,4.50
2018-07-05T06:46:13.511Z,4.60
2018-07-05T06:48:52.950Z,3.70
2018-07-05T06:51:32.303Z,4.87
2018-07-05T06:54:11.596Z,4.53
2018-07-05T06:56:50.906Z,4.40
2018-07-05T06:59:30.342Z,4.57
2018-07-05T07:05:02.665Z,4.70
2018-07-05T07:07:42.027Z,4.53
2018-07-05T07:10:21.557Z,4.90
2018-07-05T07:13:00.970Z,4.13
2018-07-05T07:15:40.491Z,4.30
2018-07-05T07:18:19.875Z,3.73
2018-07-05T07:20:59.502Z,3.60
2018-07-05T07:23:38.787Z,3.50
2018-07-05T07:26:18.315Z,4.20
2018-07-05T07:28:57.718Z,3.17
2018-07-05T07:31:37.269Z,3.17
2018-07-05T07:34:16.546Z,4.00
2018-07-05T07:36:55.941Z,3.20
2018-07-05T07:39:35.376Z,3.87
2018-07-05T07:42:02.458Z,3.80
2018-07-05T07:44:29.522Z,3.17
2018-07-05T07:46:56.648Z,3.30
2018-07-05T07:49:23.709Z,2.80
2018-07-05T07:51:50.808Z,2.70
2018-07-05T07:54:17.866Z,4.40
2018-07-05T07:56:44.939Z,3.40
2018-07-05T07:59:12.020Z,3.07
2018-07-05T08:01:39.091Z,2.60
2018-07-05T08:04:06.207Z,2.87
2018-07-05T08:06:33.285Z,3.40
2018-07-05T08:09:00.435Z,3.47
2018-07-05T08:11:27.506Z,3.40
2018-07-05T08:13:54.590Z,3.20
2018-07-05T08:16:21.659Z,2.60
2018-07-05T08:18:48.735Z,2.63
2018-07-05T08:21:15.811Z,2.80
2018-07-05T08:23:42.912Z,3.07
2018-07-05T08:26:09.985Z,3.70
2018-07-05T08:28:37.078Z,3.53
2018-07-05T08:31:04.150Z,2.70
2018-07-05T08:33:31.244Z,3.07
2018-07-05T08:35:58.335Z,2.63
2018-07-05T08:38:25.406Z,3.30
2018-07-05T08:40:52.467Z,3.13
2018-07-05T08:43:19.592Z,2.80
2018-07-05T08:45:46.664Z,3.50
2018-07-05T08:48:14.156Z,2.93
2018-07-05T08:50:41.244Z,3.57
2018-07-05T08:53:08.319Z,2.97
2018-07-05T08:55:35.423Z,3.10
2018-07-05T08:58:02.533Z,3.20
2018-07-05T09:00:29.619Z,2.87
2018-07-05T09:02:56.686Z,2.90
2018-07-05T09:05:23.776Z,3.00
2018-07-05T09:07:50.890Z,2.90
2018-07-05T09:10:17.994Z,3.03
2018-07-05T09:12:45.062Z,2.97
2018-07-05T09:15:12.153Z,3.60
2018-07-05T09:17:39.292Z,2.80
2018-07-05T09:20:06.315Z,2.80
2018-07-05T09:22:33.379Z,2.77
2018-07-05T09:25:00.459Z,2.83
2018-07-05T09:27:27.527Z,3.50
2018-07-05T09:29:54.598Z,3.33
2018-07-05T09:32:21.671Z,3.40
2018-07-05T09:34:48.759Z,3.10
2018-07-05T09:37:15.920Z,2.60
2018-07-05T09:39:42.931Z,2.53
2018-07-05T09:42:10.005Z,2.83
2018-07-05T09:44:37.096Z,3.57
2018-07-05T09:47:04.309Z,2.63
2018-07-05T09:49:31.279Z,2.90
2018-07-05T09:51:58.367Z,2.83
2018-07-05T09:54:25.430Z,3.00
2018-07-05T09:56:52.857Z,3.13
2018-07-05T09:59:19.906Z,3.50
2018-07-05T10:01:46.992Z,3.10
2018-07-05T10:04:14.154Z,3.40
2018-07-05T10:06:41.307Z,3.20
2018-07-05T10:09:08.391Z,2.77
2018-07-05T10:11:35.538Z,3.77
2018-07-05T10:14:02.624Z,3.17
2018-07-05T10:16:29.703Z,3.43
2018-07-05T10:18:56.829Z,3.13
2018-07-05T10:21:23.902Z,3.50
2018-07-05T10:23:50.974Z,3.30
2018-07-05T10:26:18.072Z,3.60
2018-07-05T10:28:57.303Z,3.00
2018-07-05T10:31:36.755Z,2.47
2018-07-05T10:34:03.832Z,2.33
2018-07-05T10:36:30.907Z,2.70
2018-07-05T10:38:57.978Z,2.77
2018-07-05T10:41:37.568Z,2.90
2018-07-05T10:44:16.856Z,2.97
2018-07-05T10:46:56.281Z,2.87
2018-07-05T10:49:35.594Z,2.77
2018-07-05T10:52:15.112Z,2.80
2018-07-05T10:54:54.627Z,2.90
2018-07-05T10:57:34.044Z,2.57
2018-07-05T11:00:13.351Z,3.13
2018-07-05T11:02:52.713Z,2.77
2018-07-05T11:05:32.234Z,2.40
2018-07-05T11:08:11.412Z,2.20
2018-07-05T11:10:50.852Z,2.80
2018-07-05T11:13:30.288Z,2.70
2018-07-05T11:16:09.623Z,2.00
2018-07-05T11:18:49.110Z,2.20
2018-07-05T11:21:28.446Z,3.00
2018-07-05T11:24:07.982Z,3.30
2018-07-05T11:26:47.293Z,2.97
2018-07-05T11:29:26.803Z,3.20
2018-07-05T11:32:06.164Z,4.10
2018-07-05T11:34:45.630Z,3.23
2018-07-05T11:37:25.082Z,3.03
2018-07-05T11:40:04.479Z,3.10
2018-07-05T11:42:43.824Z,3.37
2018-07-05T11:45:23.230Z,3.00
2018-07-05T11:48:02.501Z,3.17
2018-07-05T11:50:41.960Z,3.27
2018-07-05T11:53:21.332Z,3.80
2018-07-05T11:56:00.868Z,4.10
2018-07-05T11:58:40.357Z,3.30
2018-07-05T12:01:19.843Z,3.23
2018-07-05T12:03:59.167Z,3.17
2018-07-05T12:06:38.602Z,3.70
2018-07-05T12:09:18.059Z,2.83
2018-07-05T12:11:57.512Z,2.30
2018-07-05T12:14:36.910Z,1.63
2018-07-05T12:17:16.299Z,2.40
2018-07-05T12:19:55.623Z,2.70
2018-07-05T12:22:35.130Z,2.20
2018-07-05T12:25:14.456Z,2.40
2018-07-05T12:27:53.749Z,2.50
2018-07-05T12:30:33.107Z,2.80
2018-07-05T12:33:12.672Z,2.80
2018-07-05T12:35:51.963Z,2.40
2018-07-05T12:38:31.339Z,3.30
2018-07-05T12:41:10.911Z,2.83
2018-07-05T12:43:50.275Z,2.40
2018-07-05T12:46:29.781Z,3.00
2018-07-05T12:49:08.968Z,2.60
2018-07-05T12:51:48.498Z,2.20
2018-07-05T12:54:27.850Z,2.57
2018-07-05T12:57:07.204Z,2.60
2018-07-05T12:59:46.724Z,2.10
2018-07-05T13:02:26.051Z,2.63
2018-07-05T13:05:05.496Z,2.00
2018-07-05T13:07:44.766Z,2.10
2018-07-05T13:10:24.220Z,1.83
2018-07-05T13:13:03.707Z,1.57
2018-07-05T13:15:43.132Z,1.40
2018-07-05T13:18:22.629Z,1.60
2018-07-05T13:21:01.919Z,1.57
2018-07-05T13:23:41.218Z,1.83
2018-07-05T13:26:20.688Z,1.90
2018-07-05T13:29:00.066Z,1.93
2018-07-05T13:31:39.331Z,1.80
2018-07-05T13:34:18.876Z,1.93
2018-07-05T13:36:58.324Z,4.00
2018-07-05T13:39:37.683Z,1.93
2018-07-05T13:42:17.165Z,1.63
2018-07-05T13:44:56.487Z,1.57
2018-07-05T13:47:36.034Z,1.40
2018-07-05T13:50:15.406Z,1.80
2018-07-05T13:52:54.763Z,1.40
2018-07-05T13:55:34.092Z,1.97
2018-07-05T13:58:13.410Z,1.53
2018-07-05T14:00:53.119Z,1.70
2018-07-05T14:03:32.554Z,1.50
2018-07-05T14:06:12.070Z,1.60
2018-07-05T14:08:51.649Z,1.60
2018-07-05T14:11:31.047Z,1.93
2018-07-05T14:14:11.636Z,2.70
2018-07-05T14:16:51.259Z,2.20
2018-07-05T14:19:30.843Z,1.90
2018-07-05T14:22:10.227Z,2.00
2018-07-05T14:24:49.875Z,2.17
2018-07-05T14:27:29.292Z,3.00
2018-07-05T14:30:08.841Z,2.77
2018-07-05T14:32:48.781Z,2.87
2018-07-05T14:35:28.389Z,2.57
2018-07-05T14:38:08.222Z,3.10
2018-07-05T14:40:48.921Z,3.63
2018-07-05T14:43:28.510Z,3.07
2018-07-05T14:46:08.093Z,2.97
2018-07-05T14:48:48.298Z,2.77
2018-07-05T14:51:28.983Z,3.23
2018-07-05T14:54:08.926Z,2.60
2018-07-05T14:56:48.759Z,3.10
2018-07-05T14:59:28.329Z,2.30
2018-07-05T15:02:08.001Z,2.40
2018-07-05T15:04:47.378Z,2.30
2018-07-05T15:07:26.812Z,1.90
2018-07-05T15:10:06.298Z,1.93
2018-07-05T15:12:46.106Z,2.50
2018-07-05T15:15:25.857Z,2.33
2018-07-05T15:18:05.462Z,2.10
2018-07-05T15:20:45.402Z,2.33
2018-07-05T15:23:24.881Z,2.07
2018-07-05T15:26:04.551Z,2.83
2018-07-05T15:28:44.043Z,2.17
2018-07-05T15:31:23.423Z,2.00
2018-07-05T15:34:02.910Z,2.67
2018-07-05T15:36:42.312Z,2.40
2018-07-05T15:39:21.859Z,2.20
2018-07-05T15:42:01.356Z,2.60
2018-07-05T15:44:40.598Z,2.17
2018-07-05T15:47:20.050Z,2.00
2018-07-05T15:49:59.546Z,2.33
2018-07-05T15:52:38.988Z,2.60
2018-07-05T15:55:18.296Z,2.70
2018-07-05T15:57:57.743Z,2.70
2018-07-05T16:00:37.101Z,2.33
2018-07-05T16:03:16.592Z,2.40
2018-07-05T16:05:55.940Z,2.43
2018-07-05T16:08:35.416Z,2.50
2018-07-05T16:11:15.160Z,2.30
2018-07-05T16:13:54.667Z,2.17
2018-07-05T16:16:34.015Z,1.83
2018-07-05T16:19:13.543Z,2.50
2018-07-05T16:21:53.017Z,2.10
2018-07-05T16:24:32.404Z,2.23
2018-07-05T16:27:11.734Z,2.30
2018-07-05T16:29:51.230Z,2.50
2018-07-05T16:32:30.527Z,2.80
2018-07-05T16:35:09.967Z,2.83
2018-07-05T16:37:49.445Z,3.33
2018-07-05T16:40:28.963Z,3.43
2018-07-05T16:43:08.268Z,3.10
2018-07-05T16:45:47.564Z,3.10
2018-07-05T16:48:27.092Z,3.50
2018-07-05T16:51:06.481Z,3.40
2018-07-05T16:53:45.983Z,3.23
2018-07-05T16:56:25.302Z,3.70
2018-07-05T16:59:04.804Z,3.70
2018-07-05T17:01:44.235Z,4.97
2018-07-05T17:04:23.654Z,3.40
2018-07-05T17:07:03.007Z,4.07
2018-07-05T17:09:42.459Z,3.20
2018-07-05T17:12:21.837Z,3.40
2018-07-05T17:15:09.505Z,3.50
2018-07-05T17:17:49.104Z,3.40
2018-07-05T17:20:28.417Z,3.50
2018-07-05T17:23:07.802Z,3.77
2018-07-05T17:25:47.323Z,3.40
2018-07-05T17:28:26.869Z,4.03
2018-07-05T17:31:06.314Z,3.00
2018-07-05T17:33:45.823Z,3.30
2018-07-05T17:36:25.306Z,3.23
2018-07-05T17:39:05.608Z,3.60
2018-07-05T17:41:45.094Z,3.13
2018-07-05T17:44:24.943Z,4.30
2018-07-05T17:47:04.371Z,4.00
2018-07-05T17:49:43.965Z,3.10
2018-07-05T17:52:23.519Z,3.80
2018-07-05T17:55:02.979Z,3.97
2018-07-05T17:57:42.352Z,4.27
2018-07-05T18:00:21.853Z,4.83
2018-07-05T18:03:01.214Z,5.20
2018-07-05T18:05:40.610Z,5.60
2018-07-05T18:08:19.902Z,6.10
2018-07-05T18:10:59.487Z,5.60
2018-07-05T18:13:38.824Z,5.83
2018-07-05T18:16:18.361Z,4.50
2018-07-05T18:18:58.203Z,5.30
2018-07-05T18:21:39.365Z,5.00
2018-07-05T18:24:19.300Z,5.53
2018-07-05T18:27:00.599Z,6.03
2018-07-05T18:29:40.028Z,5.90
2018-07-05T18:32:19.722Z,5.57
2018-07-05T18:34:59.132Z,4.70
2018-07-05T18:37:39.195Z,4.53
2018-07-05T18:40:19.544Z,4.93
2018-07-05T18:42:59.294Z,4.60
2018-07-05T18:45:39.527Z,4.67
2018-07-05T18:48:19.365Z,4.37
2018-07-05T18:50:59.520Z,4.80
2018-07-05T18:53:39.081Z,4.90
2018-07-05T18:56:18.650Z,5.63
2018-07-05T18:58:58.829Z,4.70
2018-07-05T19:01:38.780Z,4.80
2018-07-05T19:04:18.499Z,5.00
2018-07-05T19:06:58.324Z,5.67
2018-07-05T19:09:40.433Z,6.00
2018-07-05T19:12:21.473Z,4.50
2018-07-05T19:15:00.952Z,5.00
2018-07-05T19:17:41.155Z,4.40
2018-07-05T19:20:22.989Z,5.00
2018-07-05T19:23:02.886Z,4.60
2018-07-05T19:25:43.608Z,5.37
2018-07-05T19:28:23.901Z,4.80
2018-07-05T19:31:04.722Z,5.37
2018-07-05T19:33:48.069Z,5.27
2018-07-05T19:36:27.536Z,5.23
2018-07-05T19:39:08.141Z,4.50
2018-07-05T19:41:48.309Z,4.60
2018-07-05T19:44:27.837Z,4.40
2018-07-05T19:47:07.383Z,4.50
2018-07-05T19:49:47.730Z,5.67
2018-07-05T19:52:27.228Z,5.93
2018-07-05T19:55:07.241Z,5.57
2018-07-05T19:57:47.701Z,5.37
2018-07-05T20:00:27.188Z,4.57
2018-07-05T20:03:07.989Z,5.47
2018-07-05T20:05:49.253Z,5.90
2018-07-05T20:08:29.248Z,5.43
2018-07-05T20:11:08.651Z,5.50
2018-07-05T20:13:48.426Z,4.73
2018-07-05T20:16:29.910Z,5.13
2018-07-05T20:19:09.322Z,4.47
2018-07-05T20:21:49.582Z,4.87
2018-07-05T20:24:29.196Z,5.53
2018-07-05T20:27:09.927Z,5.10
2018-07-05T20:29:51.668Z,5.10
2018-07-05T20:32:32.181Z,4.93
2018-07-05T20:35:11.791Z,4.80
2018-07-05T20:37:51.669Z,5.07
2018-07-05T20:40:32.370Z,4.83
2018-07-05T20:43:12.258Z,4.87
2018-07-05T20:45:51.786Z,4.83
2018-07-05T20:48:34.077Z,4.50
2018-07-05T20:51:13.694Z,4.80
2018-07-05T20:53:53.248Z,4.63
2018-07-05T20:56:33.355Z,5.80
2018-07-05T20:59:12.947Z,5.47
2018-07-05T21:01:53.607Z,5.83
2018-07-05T21:04:33.389Z,6.00
2018-07-05T21:07:14.460Z,5.80
2018-07-05T21:09:53.973Z,6.57
2018-07-05T21:12:33.375Z,5.70
2018-07-05T21:15:13.440Z,6.10
2018-07-05T21:17:52.976Z,5.30
2018-07-05T21:20:34.306Z,6.00
2018-07-05T21:23:14.006Z,5.97
2018-07-05T21:25:53.759Z,6.00
2018-07-05T21:28:33.179Z,6.00
2018-07-05T21:31:13.059Z,6.00
2018-07-05T21:33:52.559Z,6.00
2018-07-05T21:36:31.926Z,5.40
2018-07-05T21:39:11.655Z,5.60
2018-07-05T21:41:51.204Z,5.50
2018-07-05T21:44:30.729Z,6.03
2018-07-05T21:47:10.107Z,5.80
2018-07-05T21:49:50.172Z,6.03
2018-07-05T21:52:30.533Z,6.60
2018-07-05T21:55:11.063Z,6.13
2018-07-05T21:57:51.041Z,6.00
2018-07-05T22:00:30.641Z,6.73
2018-07-05T22:03:11.158Z,5.23
2018-07-05T22:05:50.860Z,6.27
2018-07-05T22:08:30.437Z,5.40
2018-07-05T22:11:09.988Z,6.20
2018-07-05T22:13:49.382Z,5.90
2018-07-05T22:16:28.863Z,6.23
2018-07-05T22:19:13.794Z,6.20
2018-07-05T22:21:58.762Z,5.67
2018-07-05T22:24:43.800Z,5.90
2018-07-05T22:27:30.431Z,6.20
2018-07-05T22:30:15.347Z,5.80
2018-07-05T22:32:55.367Z,5.90
2018-07-05T22:35:37.396Z,6.03
2018-07-05T22:38:18.145Z,5.60
2018-07-05T22:41:00.701Z,5.90
2018-07-05T22:43:40.243Z,5.83
2018-07-05T22:46:19.821Z,6.60
2018-07-05T22:49:00.343Z,6.57
2018-07-05T22:51:39.938Z,5.90
2018-07-05T22:54:19.839Z,5.47
2018-07-05T22:56:59.647Z,5.53
2018-07-05T22:59:40.142Z,5.80
2018-07-05T23:02:20.446Z,7.37
2018-07-05T23:04:59.986Z,6.20
2018-07-05T23:07:39.428Z,6.30
2018-07-05T23:10:18.739Z,6.00
2018-07-05T23:12:58.138Z,5.60
2018-07-05T23:15:37.728Z,6.10
2018-07-05T23:18:17.235Z,5.97
2018-07-05T23:20:56.577Z,6.30
2018-07-05T23:23:36.007Z,5.90
2018-07-05T23:26:15.285Z,6.20
2018-07-05T23:28:54.700Z,6.70
2018-07-05T23:31:34.272Z,6.37
2018-07-05T23:34:13.628Z,6.37
2018-07-05T23:36:53.006Z,6.93
2018-07-05T23:39:32.355Z,5.90
2018-07-05T23:42:11.792Z,6.40
2018-07-05T23:44:51.206Z,6.43
2018-07-05T23:47:30.692Z,6.27
2018-07-05T23:50:10.163Z,6.30
2018-07-05T23:52:49.531Z,6.20
2018-07-05T23:55:29.036Z,5.80
2018-07-05T23:58:08.390Z,6.87
